createdAt,value
2023-02-04T00:01:34.288Z,84.30
2023-02-04T00:04:01.412Z,84.20
2023-02-04T00:06:28.342Z,84.20
2023-02-04T00:08:55.384Z,84.30
2023-02-04T00:11:22.309Z,84.30
2023-02-04T00:13:49.180Z,84.20
2023-02-04T00:16:16.261Z,84.10
2023-02-04T00:18:43.277Z,84.10
2023-02-04T00:21:10.199Z,84.00
2023-02-04T00:23:38.301Z,84.00
2023-02-04T00:26:07.358Z,84.00
2023-02-04T00:28:34.865Z,84.10
2023-02-04T00:31:01.930Z,84.10
2023-02-04T00:33:29.232Z,84.20
2023-02-04T00:35:56.381Z,84.20
2023-02-04T00:38:23.736Z,84.10
2023-02-04T00:40:50.681Z,84.10
2023-02-04T00:43:18.726Z,84.00
2023-02-04T00:45:45.767Z,84.00
2023-02-04T00:48:12.759Z,84.00
2023-02-04T00:50:39.946Z,84.00
2023-02-04T00:53:07.580Z,84.00
2023-02-04T00:55:34.620Z,84.10
2023-02-04T00:58:01.821Z,84.10
2023-02-04T01:00:29.156Z,84.40
2023-02-04T01:02:56.393Z,84.40
2023-02-04T01:05:23.384Z,84.50
2023-02-04T01:07:50.384Z,84.50
2023-02-04T01:10:18.022Z,84.70
2023-02-04T01:12:45.149Z,84.70
2023-02-04T01:15:12.469Z,84.80
2023-02-04T01:17:39.472Z,84.90
2023-02-04T01:20:06.860Z,84.90
2023-02-04T01:22:33.902Z,85.00
2023-02-04T01:25:00.929Z,85.20
2023-02-04T01:27:44.594Z,85.20
2023-02-04T01:30:13.432Z,85.10
2023-02-04T01:32:41.018Z,85.30
2023-02-04T01:35:08.334Z,85.20
2023-02-04T01:37:35.380Z,85.30
2023-02-04T01:40:02.438Z,85.20
2023-02-04T01:42:29.486Z,85.30
2023-02-04T01:44:56.453Z,85.50
2023-02-04T01:47:24.834Z,85.40
2023-02-04T01:49:54.311Z,85.50
2023-02-04T01:52:23.137Z,85.40
2023-02-04T01:54:51.834Z,85.30
2023-02-04T01:57:18.964Z,85.30
2023-02-04T01:59:47.489Z,85.30
2023-02-04T02:02:42.442Z,85.10
2023-02-04T02:05:12.292Z,85.00
2023-02-04T02:07:39.552Z,85.00
2023-02-04T02:10:09.528Z,85.00
2023-02-04T02:12:37.271Z,85.20
2023-02-04T02:15:05.594Z,85.20
2023-02-04T02:17:33.523Z,85.40
2023-02-04T02:20:00.750Z,85.40
2023-02-04T02:22:35.493Z,85.50
2023-02-04T02:25:07.536Z,85.70
2023-02-04T02:27:34.534Z,85.60
2023-02-04T02:30:01.587Z,85.50
2023-02-04T02:32:28.802Z,85.60
2023-02-04T02:34:55.767Z,86.00
2023-02-04T02:37:22.854Z,86.30
2023-02-04T02:39:49.798Z,86.50
2023-02-04T02:42:19.648Z,86.60
2023-02-04T02:44:49.851Z,86.80
2023-02-04T02:47:20.137Z,86.80
2023-02-04T02:49:51.058Z,87.10
2023-02-04T02:52:19.009Z,86.80
2023-02-04T02:54:46.942Z,87.00
2023-02-04T02:57:19.760Z,87.10
2023-02-04T02:59:47.611Z,87.30
2023-02-04T03:02:18.916Z,87.40
2023-02-04T03:04:51.154Z,87.50
2023-02-04T03:07:20.922Z,87.60
2023-02-04T03:09:49.131Z,87.60
2023-02-04T03:12:16.191Z,87.80
2023-02-04T03:14:43.251Z,87.80
2023-02-04T03:17:11.206Z,88.00
2023-02-04T03:19:39.614Z,88.20
2023-02-04T03:22:08.065Z,88.30
2023-02-04T03:24:37.054Z,88.30
2023-02-04T03:27:04.522Z,88.40
2023-02-04T03:29:31.675Z,88.50
2023-02-04T03:32:00.143Z,88.60
2023-02-04T03:34:27.463Z,88.70
2023-02-04T03:36:54.665Z,88.60
2023-02-04T03:39:21.791Z,88.50
2023-02-04T03:41:48.787Z,88.60
2023-02-04T03:44:15.817Z,88.40
2023-02-04T03:46:42.791Z,88.40
2023-02-04T03:49:09.797Z,88.40
2023-02-04T03:51:36.823Z,88.40
2023-02-04T03:54:04.089Z,88.60
2023-02-04T03:56:31.087Z,88.60
2023-02-04T03:58:58.088Z,88.80
2023-02-04T04:01:25.146Z,88.90
2023-02-04T04:03:52.303Z,89.00
2023-02-04T04:06:19.469Z,89.00
2023-02-04T04:08:46.494Z,89.10
2023-02-04T04:11:13.459Z,89.30
2023-02-04T04:13:40.619Z,89.50
2023-02-04T04:16:09.254Z,89.50
2023-02-04T04:18:36.372Z,89.50
2023-02-04T04:21:03.750Z,89.40
2023-02-04T04:23:30.836Z,89.60
2023-02-04T04:25:57.819Z,89.60
2023-02-04T04:28:24.845Z,89.70
2023-02-04T04:30:52.204Z,89.70
2023-02-04T04:33:19.256Z,89.90
2023-02-04T04:35:46.288Z,90.00
2023-02-04T04:38:13.509Z,90.00
2023-02-04T04:40:40.555Z,90.10
2023-02-04T04:43:07.554Z,90.10
2023-02-04T04:45:34.631Z,90.20
2023-02-04T04:48:01.804Z,90.20
2023-02-04T04:50:28.883Z,90.20
2023-02-04T04:52:55.935Z,90.30
2023-02-04T04:55:22.943Z,90.40
2023-02-04T04:57:50.125Z,90.40
2023-02-04T05:00:20.110Z,90.50
2023-02-04T05:02:47.822Z,90.50
2023-02-04T05:05:15.177Z,90.50
2023-02-04T05:07:42.217Z,90.60
2023-02-04T05:10:09.636Z,90.60
2023-02-04T05:12:36.710Z,90.60
2023-02-04T05:15:03.943Z,90.70
2023-02-04T05:17:30.945Z,90.70
2023-02-04T05:19:57.919Z,90.70
2023-02-04T05:22:24.975Z,90.70
2023-02-04T05:24:51.940Z,90.70
2023-02-04T05:27:19.027Z,90.70
2023-02-04T05:29:46.234Z,90.70
2023-02-04T05:32:13.177Z,90.70
2023-02-04T05:34:40.205Z,90.60
2023-02-04T05:37:07.320Z,90.60
2023-02-04T05:39:34.372Z,90.60
2023-02-04T05:42:01.346Z,90.80
2023-02-04T05:44:29.198Z,90.90
2023-02-04T05:46:56.130Z,90.80
2023-02-04T05:49:23.883Z,90.50
2023-02-04T05:51:50.969Z,90.20
2023-02-04T05:54:20.560Z,90.20
2023-02-04T05:56:48.184Z,90.10
2023-02-04T05:59:15.311Z,90.20
2023-02-04T06:01:42.295Z,90.20
2023-02-04T06:04:09.358Z,90.30
2023-02-04T06:06:36.580Z,90.30
2023-02-04T06:09:04.192Z,90.40
2023-02-04T06:11:31.135Z,90.50
2023-02-04T06:13:58.282Z,90.60
2023-02-04T06:16:25.343Z,90.70
2023-02-04T06:18:52.304Z,90.80
2023-02-04T06:21:19.308Z,90.80
2023-02-04T06:23:46.549Z,90.90
2023-02-04T06:26:13.613Z,90.90
2023-02-04T06:28:40.498Z,91.00
2023-02-04T06:31:09.230Z,91.00
2023-02-04T06:33:37.238Z,91.20
2023-02-04T06:36:05.004Z,91.20
2023-02-04T06:38:31.967Z,91.20
2023-02-04T06:40:58.858Z,91.30
2023-02-04T06:43:27.644Z,91.50
2023-02-04T06:45:54.711Z,91.30
2023-02-04T06:48:21.838Z,91.40
2023-02-04T06:50:48.763Z,91.30
2023-02-04T06:53:15.802Z,91.30
2023-02-04T06:55:42.813Z,91.30
2023-02-04T06:58:09.831Z,91.20
2023-02-04T07:00:36.830Z,91.10
2023-02-04T07:03:03.880Z,91.00
2023-02-04T07:05:31.428Z,90.90
2023-02-04T07:07:58.399Z,90.80
2023-02-04T07:10:25.330Z,90.80
2023-02-04T07:12:52.273Z,90.60
2023-02-04T07:15:19.236Z,90.60
2023-02-04T07:17:46.222Z,90.40
2023-02-04T07:20:13.224Z,90.30
2023-02-04T07:22:40.242Z,90.70
2023-02-04T07:25:07.486Z,90.40
2023-02-04T07:27:34.563Z,88.10
2023-02-04T07:30:01.671Z,84.80
2023-02-04T07:32:32.845Z,81.30
2023-02-04T07:35:00.474Z,77.40
2023-02-04T07:37:27.835Z,74.40
2023-02-04T07:39:55.137Z,71.10
2023-02-04T07:42:22.078Z,67.80
2023-02-04T07:44:54.831Z,65.20
2023-02-04T07:47:21.753Z,62.90
2023-02-04T07:49:48.759Z,60.40
2023-02-04T07:52:15.785Z,57.90
2023-02-04T07:54:43.001Z,57.20
2023-02-04T07:57:10.156Z,56.30
2023-02-04T07:59:37.158Z,55.90
2023-02-04T08:02:04.322Z,54.30
2023-02-04T08:04:31.392Z,53.40
2023-02-04T08:06:58.734Z,53.00
2023-02-04T08:09:27.293Z,52.90
2023-02-04T08:11:54.607Z,53.10
2023-02-04T08:14:21.600Z,53.80
2023-02-04T08:16:48.775Z,54.40
2023-02-04T08:19:19.182Z,55.30
2023-02-04T08:21:46.266Z,56.40
2023-02-04T08:24:14.112Z,57.30
2023-02-04T08:26:42.215Z,58.10
2023-02-04T08:29:09.649Z,58.40
2023-02-04T08:31:37.790Z,58.30
2023-02-04T08:34:05.900Z,58.40
2023-02-04T08:36:33.393Z,58.30
2023-02-04T08:39:00.311Z,57.80
2023-02-04T08:41:27.433Z,57.20
2023-02-04T08:43:54.333Z,57.00
2023-02-04T08:46:21.276Z,56.60
2023-02-04T08:48:48.331Z,56.10
2023-02-04T08:51:15.446Z,55.50
2023-02-04T08:53:42.491Z,54.40
2023-02-04T08:56:10.411Z,52.70
2023-02-04T08:58:37.306Z,51.70
2023-02-04T09:01:04.511Z,50.30
2023-02-04T09:03:32.116Z,49.20
2023-02-04T09:05:59.056Z,48.20
2023-02-04T09:08:25.966Z,46.40
2023-02-04T09:10:52.868Z,46.90
2023-02-04T09:13:19.712Z,45.70
2023-02-04T09:15:46.700Z,44.70
2023-02-04T09:18:21.990Z,43.50
2023-02-04T09:20:49.782Z,42.40
2023-02-04T09:23:16.877Z,40.70
2023-02-04T09:25:44.407Z,39.60
2023-02-04T09:28:12.696Z,38.40
2023-02-04T09:30:40.349Z,38.80
2023-02-04T09:33:07.773Z,38.70
2023-02-04T09:35:34.781Z,38.10
2023-02-04T09:38:04.685Z,37.70
2023-02-04T09:40:34.807Z,37.80
2023-02-04T09:43:02.664Z,38.40
2023-02-04T09:45:30.781Z,38.50
2023-02-04T09:47:58.374Z,39.70
2023-02-04T09:50:26.501Z,39.70
2023-02-04T09:52:54.504Z,40.20
2023-02-04T09:55:22.797Z,40.10
2023-02-04T09:57:49.653Z,39.10
2023-02-04T10:00:16.809Z,39.30
2023-02-04T10:02:43.974Z,39.50
2023-02-04T10:05:14.887Z,39.20
2023-02-04T10:07:42.292Z,39.70
2023-02-04T10:10:19.594Z,39.80
2023-02-04T10:12:47.391Z,39.40
2023-02-04T10:15:15.022Z,38.70
2023-02-04T10:17:42.779Z,37.60
2023-02-04T10:20:14.193Z,38.00
2023-02-04T10:22:41.351Z,37.90
2023-02-04T10:25:15.945Z,37.30
2023-02-04T10:27:59.616Z,37.00
2023-02-04T10:30:28.101Z,37.10
2023-02-04T10:32:54.960Z,37.60
2023-02-04T10:35:22.521Z,38.20
2023-02-04T10:38:02.390Z,37.70
2023-02-04T10:40:36.056Z,37.30
2023-02-04T10:43:15.316Z,37.70
2023-02-04T10:45:47.246Z,38.60
2023-02-04T10:48:17.902Z,39.10
2023-02-04T10:50:46.002Z,39.10
2023-02-04T10:53:33.765Z,38.60
2023-02-04T10:56:00.778Z,38.00
2023-02-04T10:58:28.929Z,37.40
2023-02-04T11:00:55.932Z,36.60
2023-02-04T11:03:24.254Z,36.40
2023-02-04T11:05:51.485Z,36.30
2023-02-04T11:08:21.448Z,36.80
2023-02-04T11:10:50.298Z,37.80
2023-02-04T11:13:21.701Z,37.70
2023-02-04T11:16:27.227Z,36.70
2023-02-04T11:18:55.046Z,36.60
2023-02-04T11:21:24.885Z,36.70
2023-02-04T11:24:04.109Z,36.30
2023-02-04T11:26:35.398Z,36.50
2023-02-04T11:29:02.216Z,37.00
2023-02-04T11:31:49.433Z,37.20
2023-02-04T11:34:16.280Z,37.80
2023-02-04T11:36:59.071Z,38.60
2023-02-04T11:39:28.399Z,38.50
2023-02-04T11:41:55.257Z,38.90
2023-02-04T11:44:23.147Z,38.60
2023-02-04T11:46:51.624Z,38.10
2023-02-04T11:49:19.626Z,38.20
2023-02-04T11:51:46.732Z,38.70
2023-02-04T11:54:16.329Z,39.10
2023-02-04T11:56:43.185Z,39.60
2023-02-04T11:59:11.334Z,39.60
2023-02-04T12:01:38.366Z,39.50
2023-02-04T12:04:07.238Z,39.60
2023-02-04T12:06:36.275Z,40.10
2023-02-04T12:09:23.370Z,39.90
2023-02-04T12:11:53.224Z,39.80
2023-02-04T12:14:20.465Z,40.40
2023-02-04T12:16:56.297Z,40.30
2023-02-04T12:19:23.407Z,40.10
2023-02-04T12:21:50.283Z,40.10
2023-02-04T12:24:17.144Z,40.10
2023-02-04T12:26:43.942Z,40.60
2023-02-04T12:29:10.731Z,40.90
2023-02-04T12:31:37.698Z,41.60
2023-02-04T12:34:04.566Z,41.90
2023-02-04T12:36:31.468Z,41.60
2023-02-04T12:39:02.898Z,41.00
2023-02-04T12:41:29.757Z,40.60
2023-02-04T12:43:56.600Z,40.20
2023-02-04T12:46:23.519Z,40.10
2023-02-04T12:48:50.444Z,39.60
2023-02-04T12:51:17.272Z,39.30
2023-02-04T12:53:44.116Z,39.00
2023-02-04T12:56:10.918Z,38.30
2023-02-04T12:58:37.748Z,38.00
2023-02-04T13:01:04.776Z,38.30
2023-02-04T13:03:32.258Z,38.50
2023-02-04T13:05:59.161Z,39.20
2023-02-04T13:08:26.055Z,38.60
2023-02-04T13:10:52.932Z,38.90
2023-02-04T13:13:20.127Z,38.30
2023-02-04T13:15:47.006Z,38.30
2023-02-04T13:18:15.247Z,38.10
2023-02-04T13:20:43.589Z,37.60
2023-02-04T13:23:10.378Z,37.10
2023-02-04T13:25:37.295Z,36.90
2023-02-04T13:28:04.186Z,37.00
2023-02-04T13:30:31.060Z,36.70
2023-02-04T13:32:58.298Z,36.50
2023-02-04T13:35:25.476Z,36.80
2023-02-04T13:37:52.351Z,36.90
2023-02-04T13:40:19.254Z,37.20
2023-02-04T13:42:46.115Z,37.50
2023-02-04T13:45:13.101Z,37.40
2023-02-04T13:47:39.947Z,37.70
2023-02-04T13:50:07.133Z,37.90
2023-02-04T13:52:34.555Z,38.00
2023-02-04T13:55:01.678Z,38.00
2023-02-04T13:57:30.257Z,38.50
2023-02-04T13:59:57.043Z,38.50
2023-02-04T14:02:24.088Z,38.60
2023-02-04T14:04:51.110Z,39.20
2023-02-04T14:07:17.955Z,39.60
2023-02-04T14:09:44.757Z,39.70
2023-02-04T14:12:11.645Z,39.80
2023-02-04T14:14:38.461Z,40.10
2023-02-04T14:17:05.263Z,40.20
2023-02-04T14:19:32.090Z,40.40
2023-02-04T14:21:58.978Z,40.80
2023-02-04T14:24:25.806Z,41.00
2023-02-04T14:26:52.665Z,41.20
2023-02-04T14:29:19.527Z,41.50
2023-02-04T14:31:46.363Z,41.60
2023-02-04T14:34:13.353Z,41.70
2023-02-04T14:36:40.185Z,41.60
2023-02-04T14:39:07.047Z,41.90
2023-02-04T14:41:33.874Z,42.30
2023-02-04T14:44:01.600Z,42.60
2023-02-04T14:46:28.478Z,42.90
2023-02-04T14:48:55.358Z,43.50
2023-02-04T14:51:22.246Z,44.40
2023-02-04T14:53:49.054Z,45.40
2023-02-04T14:56:16.249Z,46.20
2023-02-04T14:58:43.123Z,46.70
2023-02-04T15:01:10.062Z,47.40
2023-02-04T15:03:36.957Z,47.90
2023-02-04T15:06:03.910Z,48.20
2023-02-04T15:08:32.796Z,48.30
2023-02-04T15:10:59.806Z,48.70
2023-02-04T15:13:28.676Z,50.00
2023-02-04T15:15:55.798Z,51.40
2023-02-04T15:18:23.022Z,52.60
2023-02-04T15:20:49.953Z,53.60
2023-02-04T15:23:18.127Z,54.20
2023-02-04T15:25:45.459Z,55.00
2023-02-04T15:28:13.014Z,55.60
2023-02-04T15:30:40.357Z,56.60
2023-02-04T15:33:07.370Z,57.30
2023-02-04T15:35:34.296Z,58.70
2023-02-04T15:38:01.286Z,60.50
2023-02-04T15:40:30.137Z,62.00
2023-02-04T15:42:57.202Z,65.00
2023-02-04T15:45:24.354Z,65.60
2023-02-04T15:47:51.358Z,66.70
2023-02-04T15:50:18.379Z,66.40
2023-02-04T15:52:45.487Z,67.90
2023-02-04T15:55:12.614Z,70.00
2023-02-04T15:57:39.647Z,70.40
2023-02-04T16:00:07.478Z,71.10
2023-02-04T16:02:34.564Z,71.30
2023-02-04T16:05:01.484Z,71.00
2023-02-04T16:07:28.422Z,71.30
2023-02-04T16:09:55.370Z,72.00
2023-02-04T16:12:22.328Z,72.50
2023-02-04T16:14:49.298Z,73.00
2023-02-04T16:17:18.813Z,73.70
2023-02-04T16:19:45.938Z,73.70
2023-02-04T16:22:12.954Z,73.80
2023-02-04T16:24:39.976Z,74.00
2023-02-04T16:27:07.047Z,74.30
2023-02-04T16:29:33.977Z,74.80
2023-02-04T16:32:00.908Z,75.40
2023-02-04T16:34:29.296Z,75.60
2023-02-04T16:36:56.206Z,75.80
2023-02-04T16:39:24.376Z,75.70
2023-02-04T16:41:51.522Z,75.90
2023-02-04T16:44:18.417Z,76.30
2023-02-04T16:46:45.491Z,76.60
2023-02-04T16:49:12.470Z,77.00
2023-02-04T16:51:39.387Z,77.20
2023-02-04T16:54:06.403Z,77.50
2023-02-04T16:56:35.636Z,77.70
2023-02-04T16:59:02.952Z,77.90
2023-02-04T17:01:30.074Z,78.10
2023-02-04T17:03:59.820Z,78.50
2023-02-04T17:06:28.122Z,78.80
2023-02-04T17:08:55.647Z,79.00
2023-02-04T17:11:28.912Z,79.30
2023-02-04T17:14:00.430Z,79.60
2023-02-04T17:16:27.870Z,79.90
2023-02-04T17:18:55.314Z,80.00
2023-02-04T17:21:24.661Z,80.40
2023-02-04T17:23:51.880Z,82.50
2023-02-04T17:26:19.617Z,82.80
2023-02-04T17:28:46.545Z,83.10
2023-02-04T17:31:13.735Z,84.50
2023-02-04T17:33:40.745Z,84.10
2023-02-04T17:36:08.527Z,84.10
2023-02-04T17:38:35.520Z,84.30
2023-02-04T17:41:02.711Z,84.70
2023-02-04T17:43:29.704Z,85.30
2023-02-04T17:45:56.654Z,85.70
2023-02-04T17:48:23.592Z,85.20
2023-02-04T17:50:50.510Z,82.90
2023-02-04T17:53:17.413Z,79.30
2023-02-04T17:55:44.361Z,78.20
2023-02-04T17:58:27.061Z,77.00
2023-02-04T18:00:57.758Z,75.70
2023-02-04T18:03:29.123Z,74.60
2023-02-04T18:05:56.938Z,73.20
2023-02-04T18:08:38.263Z,72.40
2023-02-04T18:11:18.303Z,72.00
2023-02-04T18:13:45.310Z,71.40
2023-02-04T18:16:30.587Z,71.30
2023-02-04T18:19:18.490Z,71.10
2023-02-04T18:21:46.554Z,70.90
2023-02-04T18:24:42.153Z,70.80
2023-02-04T18:27:17.115Z,70.50
2023-02-04T18:29:47.784Z,70.50
2023-02-04T18:32:38.887Z,70.60
2023-02-04T18:35:31.596Z,70.60
2023-02-04T18:37:58.574Z,70.80
2023-02-04T18:40:28.309Z,70.90
2023-02-04T18:43:13.992Z,70.80
2023-02-04T18:45:41.327Z,70.50
2023-02-04T18:48:20.545Z,70.30
2023-02-04T18:50:50.316Z,70.40
2023-02-04T18:53:23.544Z,70.50
2023-02-04T18:55:53.332Z,70.50
2023-02-04T18:58:34.024Z,70.40
2023-02-04T19:01:05.525Z,70.10
2023-02-04T19:03:42.201Z,69.80
2023-02-04T19:06:25.170Z,69.70
2023-02-04T19:08:52.915Z,69.50
2023-02-04T19:11:36.644Z,69.30
2023-02-04T19:14:18.294Z,69.40
2023-02-04T19:16:52.618Z,69.70
2023-02-04T19:20:02.695Z,70.10
2023-02-04T19:22:46.912Z,70.70
2023-02-04T19:25:22.886Z,71.00
2023-02-04T19:27:59.130Z,71.30
2023-02-04T19:30:28.952Z,71.60
2023-02-04T19:33:10.114Z,71.80
2023-02-04T19:35:43.263Z,72.20
2023-02-04T19:38:43.169Z,72.60
2023-02-04T19:41:48.017Z,73.10
2023-02-04T19:44:15.132Z,73.50
2023-02-04T19:46:42.926Z,73.60
2023-02-04T19:49:21.874Z,73.90
2023-02-04T19:51:55.250Z,74.30
2023-02-04T19:54:25.269Z,74.60
2023-02-04T19:56:54.743Z,74.70
2023-02-04T19:59:28.657Z,75.00
2023-02-04T20:02:07.464Z,75.20
2023-02-04T20:04:42.856Z,75.60
2023-02-04T20:07:18.984Z,75.90
2023-02-04T20:09:46.391Z,76.10
2023-02-04T20:12:17.847Z,76.20
2023-02-04T20:14:47.633Z,76.40
2023-02-04T20:17:26.855Z,76.40
2023-02-04T20:19:53.795Z,76.50
2023-02-04T20:22:21.788Z,76.40
2023-02-04T20:24:54.513Z,76.50
2023-02-04T20:27:28.757Z,76.80
2023-02-04T20:30:23.439Z,76.90
2023-02-04T20:32:55.613Z,77.10
2023-02-04T20:35:22.822Z,77.10
2023-02-04T20:37:54.044Z,76.90
2023-02-04T20:40:36.466Z,77.10
2023-02-04T20:43:20.221Z,77.10
2023-02-04T20:45:49.696Z,77.00
2023-02-04T20:48:16.605Z,76.90
2023-02-04T20:50:54.568Z,76.80
2023-02-04T20:53:29.675Z,76.80
2023-02-04T20:56:05.115Z,76.80
2023-02-04T20:58:41.209Z,76.70
2023-02-04T21:01:38.213Z,76.60
2023-02-04T21:04:34.012Z,76.50
2023-02-04T21:07:13.958Z,76.40
2023-02-04T21:09:40.893Z,76.20
2023-02-04T21:12:08.582Z,76.00
2023-02-04T21:14:35.777Z,75.90
2023-02-04T21:17:03.420Z,76.00
2023-02-04T21:19:30.685Z,75.90
2023-02-04T21:21:58.860Z,76.20
2023-02-04T21:24:26.678Z,76.40
2023-02-04T21:26:53.770Z,76.70
2023-02-04T21:29:20.735Z,76.60
2023-02-04T21:31:47.785Z,76.50
2023-02-04T21:34:15.856Z,76.30
2023-02-04T21:36:42.782Z,76.10
2023-02-04T21:39:09.717Z,75.90
2023-02-04T21:41:36.775Z,75.80
2023-02-04T21:44:04.019Z,75.60
2023-02-04T21:46:31.242Z,75.70
2023-02-04T21:48:58.179Z,75.70
2023-02-04T21:51:25.161Z,76.10
2023-02-04T21:53:52.092Z,76.20
2023-02-04T21:56:19.050Z,76.30
2023-02-04T21:58:45.958Z,76.50
2023-02-04T22:01:12.929Z,76.60
2023-02-04T22:03:39.902Z,76.90
2023-02-04T22:06:07.357Z,77.00
2023-02-04T22:08:34.246Z,77.00
2023-02-04T22:11:01.134Z,77.10
2023-02-04T22:13:46.493Z,77.10
2023-02-04T22:16:13.532Z,77.10
2023-02-04T22:18:40.553Z,77.20
2023-02-04T22:21:07.472Z,77.40
2023-02-04T22:23:34.393Z,77.60
2023-02-04T22:26:01.353Z,77.70
2023-02-04T22:28:28.335Z,77.70
2023-02-04T22:30:55.286Z,77.80
2023-02-04T22:33:22.302Z,77.90
2023-02-04T22:35:49.242Z,78.10
2023-02-04T22:38:16.269Z,78.20
2023-02-04T22:40:43.289Z,78.30
2023-02-04T22:43:10.231Z,78.50
2023-02-04T22:45:37.185Z,78.60
2023-02-04T22:48:04.204Z,78.80
2023-02-04T22:50:31.173Z,79.00
2023-02-04T22:52:58.300Z,79.20
2023-02-04T22:55:25.270Z,79.30
2023-02-04T22:57:52.176Z,79.30
2023-02-04T23:00:19.216Z,79.40
2023-02-04T23:02:46.140Z,79.70
2023-02-04T23:05:13.040Z,79.70
2023-02-04T23:07:40.050Z,79.70
2023-02-04T23:10:07.552Z,79.80
2023-02-04T23:12:34.555Z,80.00
2023-02-04T23:15:01.596Z,80.10
2023-02-04T23:17:28.666Z,80.00
2023-02-04T23:19:55.714Z,80.20
2023-02-04T23:22:22.655Z,80.00
2023-02-04T23:24:49.712Z,79.90
2023-02-04T23:27:16.876Z,79.60
2023-02-04T23:29:43.955Z,79.40
2023-02-04T23:32:10.942Z,79.10
2023-02-04T23:34:38.151Z,79.00
2023-02-04T23:37:05.091Z,78.90
2023-02-04T23:39:32.042Z,78.70
2023-02-04T23:41:59.133Z,78.60
2023-02-04T23:44:26.103Z,78.50
2023-02-04T23:46:53.072Z,78.60
2023-02-04T23:49:20.135Z,78.60
2023-02-04T23:51:47.211Z,78.90
2023-02-04T23:54:14.264Z,78.90
2023-02-04T23:56:41.557Z,79.10
2023-02-04T23:59:08.676Z,79.10
